createdAt,value
2023-03-26T00:01:46.756Z,11.33
2023-03-26T00:04:14.567Z,8.47
2023-03-26T00:06:42.386Z,7.43
2023-03-26T00:09:13.184Z,10.23
2023-03-26T00:11:42.668Z,11.20
2023-03-26T00:14:13.854Z,6.50
2023-03-26T00:16:43.013Z,7.43
2023-03-26T00:19:11.301Z,7.27
2023-03-26T00:21:39.070Z,7.10
2023-03-26T00:24:09.478Z,8.03
2023-03-26T00:26:38.922Z,16.73
2023-03-26T00:29:09.804Z,13.60
2023-03-26T00:31:39.818Z,13.13
2023-03-26T00:34:08.462Z,8.63
2023-03-26T00:36:37.234Z,9.50
2023-03-26T00:39:06.156Z,5.87
2023-03-26T00:41:37.039Z,10.60
2023-03-26T00:44:05.092Z,6.50
2023-03-26T00:46:34.237Z,5.87
2023-03-26T00:49:03.783Z,9.87
2023-03-26T00:51:31.947Z,8.33
2023-03-26T00:53:59.714Z,10.37
2023-03-26T00:56:27.456Z,10.17
2023-03-26T00:58:55.571Z,14.33
2023-03-26T01:01:27.710Z,15.67
2023-03-26T01:04:07.441Z,10.77
2023-03-26T01:06:38.733Z,13.23
2023-03-26T01:09:14.103Z,10.63
2023-03-26T01:11:41.953Z,8.93
2023-03-26T01:14:13.188Z,10.90
2023-03-26T01:16:45.045Z,10.30
2023-03-26T01:19:17.950Z,10.97
2023-03-26T01:21:47.338Z,8.60
2023-03-26T01:24:16.445Z,9.40
2023-03-26T01:27:07.852Z,12.47
2023-03-26T01:29:42.373Z,9.43
2023-03-26T01:32:20.702Z,9.63
2023-03-26T01:34:57.327Z,10.70
2023-03-26T01:37:30.494Z,5.53
2023-03-26T01:40:07.126Z,8.90
2023-03-26T01:42:37.999Z,8.17
2023-03-26T01:45:10.495Z,10.43
2023-03-26T01:47:39.319Z,13.70
2023-03-26T01:50:08.655Z,12.03
2023-03-26T01:52:36.546Z,14.13
2023-03-26T01:55:06.639Z,16.67
2023-03-26T01:57:38.008Z,14.13
2023-03-26T02:00:14.216Z,11.23
2023-03-26T02:02:49.949Z,10.67
2023-03-26T02:05:22.149Z,15.97
2023-03-26T02:07:53.834Z,15.97
2023-03-26T02:10:28.578Z,12.60
2023-03-26T02:12:56.499Z,14.60
2023-03-26T02:15:24.572Z,7.90
2023-03-26T02:17:53.340Z,10.30
2023-03-26T02:20:22.072Z,13.70
2023-03-26T02:22:49.791Z,10.70
2023-03-26T02:25:19.394Z,16.27
2023-03-26T02:27:50.303Z,6.90
2023-03-26T02:30:20.126Z,9.73
2023-03-26T02:32:47.911Z,11.73
2023-03-26T02:35:15.774Z,13.77
2023-03-26T02:37:46.843Z,17.57
2023-03-26T02:40:14.790Z,17.43
2023-03-26T02:42:42.485Z,11.43
2023-03-26T02:45:11.620Z,13.17
2023-03-26T02:47:39.375Z,28.83
2023-03-26T02:50:09.021Z,18.30
2023-03-26T02:52:37.461Z,15.67
2023-03-26T02:55:05.360Z,19.93
2023-03-26T02:57:33.086Z,14.47
2023-03-26T03:00:02.356Z,18.83
2023-03-26T03:02:31.468Z,15.50
2023-03-26T03:05:01.563Z,22.77
2023-03-26T03:07:30.033Z,21.43
2023-03-26T03:10:03.298Z,24.13
2023-03-26T03:12:31.015Z,23.20
2023-03-26T03:14:58.716Z,20.37
2023-03-26T03:17:26.672Z,22.40
2023-03-26T03:19:55.763Z,28.47
2023-03-26T03:22:23.445Z,24.53
2023-03-26T03:24:52.036Z,17.73
2023-03-26T03:27:20.361Z,24.83
2023-03-26T03:29:48.104Z,25.43
2023-03-26T03:32:15.788Z,26.17
2023-03-26T03:34:43.434Z,29.23
2023-03-26T03:37:12.728Z,24.47
2023-03-26T03:39:40.562Z,26.87
2023-03-26T03:42:08.290Z,20.27
2023-03-26T03:44:36.161Z,24.73
2023-03-26T03:47:03.922Z,27.47
2023-03-26T03:49:31.642Z,25.77
2023-03-26T03:51:59.386Z,31.27
2023-03-26T03:54:29.340Z,24.50
2023-03-26T03:56:57.432Z,22.73
2023-03-26T03:59:25.239Z,25.50
2023-03-26T04:01:52.906Z,27.20
2023-03-26T04:04:21.985Z,23.87
2023-03-26T04:06:49.796Z,33.53
2023-03-26T04:09:17.542Z,29.27
2023-03-26T04:11:46.549Z,24.80
2023-03-26T04:14:14.221Z,27.50
2023-03-26T04:16:41.951Z,29.27
2023-03-26T04:19:09.658Z,26.23
2023-03-26T04:21:37.879Z,28.00
2023-03-26T04:24:07.192Z,20.67
2023-03-26T04:26:35.494Z,22.77
2023-03-26T04:29:06.512Z,25.27
2023-03-26T04:31:36.182Z,21.43
2023-03-26T04:34:07.777Z,26.07
2023-03-26T04:36:35.537Z,21.97
2023-03-26T04:39:05.238Z,23.10
2023-03-26T04:41:33.290Z,22.20
2023-03-26T04:44:02.020Z,23.87
2023-03-26T04:46:33.653Z,19.63
2023-03-26T04:49:02.232Z,21.77
2023-03-26T04:51:38.380Z,26.07
2023-03-26T04:54:08.161Z,17.40
2023-03-26T04:56:43.272Z,23.60
2023-03-26T04:59:14.901Z,22.37
2023-03-26T05:01:45.814Z,26.83
2023-03-26T05:04:14.090Z,22.37
2023-03-26T05:06:42.924Z,21.40
2023-03-26T05:09:11.172Z,22.00
2023-03-26T05:11:38.919Z,21.30
2023-03-26T05:14:06.747Z,24.83
2023-03-26T05:16:34.730Z,16.83
2023-03-26T05:19:03.871Z,16.73
2023-03-26T05:21:31.531Z,26.77
2023-03-26T05:23:59.410Z,21.27
2023-03-26T05:26:27.223Z,21.70
2023-03-26T05:28:54.943Z,25.87
2023-03-26T05:31:22.819Z,20.67
2023-03-26T05:33:51.592Z,19.77
2023-03-26T05:36:20.856Z,17.97
2023-03-26T05:38:49.797Z,28.67
2023-03-26T05:41:18.106Z,20.97
2023-03-26T05:43:47.199Z,23.93
2023-03-26T05:46:15.529Z,22.97
2023-03-26T05:48:43.268Z,18.57
2023-03-26T05:51:12.282Z,23.87
2023-03-26T05:53:41.345Z,21.17
2023-03-26T05:56:09.743Z,23.80
2023-03-26T05:58:37.975Z,23.60
2023-03-26T06:01:08.439Z,22.57
2023-03-26T06:03:38.208Z,24.73
2023-03-26T06:06:08.402Z,26.47
2023-03-26T06:08:36.082Z,29.47
2023-03-26T06:11:08.064Z,26.97
2023-03-26T06:13:36.079Z,29.80
2023-03-26T06:16:03.851Z,26.57
2023-03-26T06:18:31.571Z,29.60
2023-03-26T06:21:00.197Z,27.53
2023-03-26T06:23:27.910Z,37.97
2023-03-26T06:25:56.180Z,27.93
2023-03-26T06:28:25.374Z,28.93
2023-03-26T06:30:53.744Z,32.83
2023-03-26T06:33:23.470Z,26.47
2023-03-26T06:35:52.306Z,30.57
2023-03-26T06:38:20.076Z,35.17
2023-03-26T06:40:47.752Z,22.83
2023-03-26T06:43:15.404Z,26.57
2023-03-26T06:45:44.435Z,23.20
2023-03-26T06:48:12.109Z,24.40
2023-03-26T06:50:39.813Z,27.97
2023-03-26T06:53:07.520Z,28.63
2023-03-26T06:55:35.211Z,22.80
2023-03-26T06:58:02.876Z,23.93
2023-03-26T07:00:30.596Z,27.03
2023-03-26T07:02:59.813Z,23.80
2023-03-26T07:05:27.490Z,24.00
2023-03-26T07:07:55.352Z,25.77
2023-03-26T07:10:23.044Z,24.30
2023-03-26T07:12:50.721Z,21.93
2023-03-26T07:15:18.454Z,28.63
2023-03-26T07:17:46.215Z,20.37
2023-03-26T07:20:15.413Z,17.70
2023-03-26T07:22:43.622Z,21.23
2023-03-26T07:25:13.032Z,17.10
2023-03-26T07:27:48.296Z,16.63
2023-03-26T07:30:18.401Z,19.83
2023-03-26T07:32:51.167Z,19.57
2023-03-26T07:35:23.573Z,19.77
2023-03-26T07:38:01.780Z,22.17
2023-03-26T07:40:41.332Z,19.00
2023-03-26T07:43:15.775Z,10.83
2023-03-26T07:45:44.865Z,16.87
2023-03-26T07:48:18.099Z,15.20
2023-03-26T07:50:48.465Z,16.17
2023-03-26T07:53:16.578Z,12.93
2023-03-26T07:55:52.116Z,12.40
2023-03-26T07:58:34.952Z,9.30
2023-03-26T08:01:06.194Z,10.60
2023-03-26T08:03:47.322Z,15.33
2023-03-26T08:06:20.456Z,8.73
2023-03-26T08:08:55.113Z,16.43
2023-03-26T08:11:32.896Z,15.10
2023-03-26T08:14:15.340Z,23.53
2023-03-26T08:16:47.862Z,12.90
2023-03-26T08:19:29.809Z,21.77
2023-03-26T08:22:02.134Z,18.87
2023-03-26T08:24:37.009Z,15.37
2023-03-26T08:27:13.430Z,21.37
2023-03-26T08:29:45.275Z,24.93
2023-03-26T08:32:16.009Z,17.53
2023-03-26T08:34:43.742Z,12.93
2023-03-26T08:37:12.835Z,14.57
2023-03-26T08:39:42.456Z,14.13
2023-03-26T08:42:45.982Z,11.57
2023-03-26T08:45:41.491Z,11.97
2023-03-26T08:48:44.796Z,15.40
2023-03-26T08:51:40.603Z,15.93
2023-03-26T08:54:40.775Z,17.77
2023-03-26T08:57:34.478Z,10.10
2023-03-26T09:00:17.097Z,16.93
2023-03-26T09:03:01.473Z,12.93
2023-03-26T09:06:01.219Z,13.30
2023-03-26T09:09:00.796Z,11.77
2023-03-26T09:12:28.287Z,15.10
2023-03-26T09:15:31.921Z,15.57
2023-03-26T09:18:43.960Z,11.73
2023-03-26T09:21:28.609Z,19.93
2023-03-26T09:24:25.479Z,15.40
2023-03-26T09:27:01.659Z,13.13
2023-03-26T09:29:56.186Z,18.50
2023-03-26T09:32:58.188Z,14.67
2023-03-26T09:35:53.741Z,15.90
2023-03-26T09:38:38.443Z,16.27
2023-03-26T09:41:12.074Z,17.60
2023-03-26T09:44:30.376Z,18.10
2023-03-26T09:47:12.605Z,16.87
2023-03-26T09:49:47.930Z,17.70
2023-03-26T09:52:37.856Z,7.17
2023-03-26T09:55:22.762Z,13.63
2023-03-26T09:58:30.345Z,19.33
2023-03-26T10:01:01.022Z,14.73
2023-03-26T10:03:36.035Z,16.70
2023-03-26T10:06:25.823Z,16.97
2023-03-26T10:09:10.434Z,16.20
2023-03-26T10:12:04.527Z,18.37
2023-03-26T10:14:36.538Z,22.10
2023-03-26T10:17:12.742Z,17.50
2023-03-26T10:19:49.677Z,13.97
2023-03-26T10:22:32.736Z,19.93
2023-03-26T10:25:14.132Z,21.83
2023-03-26T10:27:49.280Z,16.00
2023-03-26T10:30:30.472Z,21.03
2023-03-26T10:33:03.167Z,11.73
2023-03-26T10:35:41.659Z,18.87
2023-03-26T10:38:19.967Z,17.37
2023-03-26T10:40:59.087Z,18.77
2023-03-26T10:43:54.634Z,16.50
2023-03-26T10:46:48.466Z,18.50
2023-03-26T10:49:36.179Z,11.60
2023-03-26T10:52:05.117Z,11.27
2023-03-26T10:54:43.738Z,17.03
2023-03-26T10:57:21.319Z,28.93
2023-03-26T10:59:49.021Z,16.10
2023-03-26T11:02:30.523Z,9.87
2023-03-26T11:05:10.131Z,14.43
2023-03-26T11:07:41.573Z,18.93
2023-03-26T11:10:14.909Z,26.50
2023-03-26T11:12:46.122Z,25.73
2023-03-26T11:15:21.773Z,19.07
2023-03-26T11:17:58.355Z,11.63
2023-03-26T11:20:33.848Z,15.00
2023-03-26T11:23:22.852Z,16.93
2023-03-26T11:26:12.071Z,26.83
2023-03-26T11:29:31.135Z,14.70
2023-03-26T11:32:04.901Z,19.13
2023-03-26T11:34:37.045Z,19.57
2023-03-26T11:37:08.049Z,14.10
2023-03-26T11:39:42.838Z,16.73
2023-03-26T11:42:14.333Z,23.90
2023-03-26T11:44:45.515Z,18.60
2023-03-26T11:47:17.507Z,15.30
2023-03-26T11:49:45.800Z,20.50
2023-03-26T11:52:15.655Z,14.10
2023-03-26T11:54:43.458Z,21.77
2023-03-26T11:57:17.275Z,12.40
2023-03-26T11:59:56.576Z,12.77
2023-03-26T12:02:32.288Z,17.53
2023-03-26T12:05:19.332Z,11.03
2023-03-26T12:07:51.207Z,14.67
2023-03-26T12:10:25.062Z,10.73
2023-03-26T12:12:56.340Z,11.23
2023-03-26T12:15:24.149Z,10.87
2023-03-26T12:17:56.097Z,9.73
2023-03-26T12:20:35.898Z,10.47
2023-03-26T12:23:04.994Z,17.77
2023-03-26T12:25:34.040Z,12.13
2023-03-26T12:28:05.019Z,22.03
2023-03-26T12:30:34.800Z,18.17
2023-03-26T12:33:05.536Z,14.00
2023-03-26T12:35:34.814Z,13.07
2023-03-26T12:38:24.183Z,11.30
2023-03-26T12:41:06.663Z,11.67
2023-03-26T12:44:48.826Z,12.57
2023-03-26T12:47:58.451Z,10.83
2023-03-26T12:49:19.127Z,11.27
2023-03-26T12:51:49.973Z,11.87
2023-03-26T12:54:25.935Z,8.53
2023-03-26T12:57:12.417Z,11.27
2023-03-26T12:59:52.782Z,12.27
2023-03-26T13:02:44.892Z,10.30
2023-03-26T13:05:28.397Z,8.03
2023-03-26T13:08:05.280Z,6.93
2023-03-26T13:10:43.089Z,9.53
2023-03-26T13:13:37.500Z,12.43
2023-03-26T13:16:11.212Z,9.87
2023-03-26T13:18:45.430Z,13.17
2023-03-26T13:21:19.271Z,15.53
2023-03-26T13:23:51.443Z,21.37
2023-03-26T13:26:29.890Z,14.67
2023-03-26T13:29:02.612Z,15.13
2023-03-26T13:31:35.011Z,12.20
2023-03-26T13:34:11.243Z,9.07
2023-03-26T13:36:46.701Z,12.63
2023-03-26T13:39:28.803Z,22.07
2023-03-26T13:42:22.562Z,11.37
2023-03-26T13:45:05.125Z,19.87
2023-03-26T13:47:37.780Z,14.20
2023-03-26T13:50:09.866Z,16.17
2023-03-26T13:52:42.716Z,12.63
2023-03-26T13:55:21.219Z,8.70
2023-03-26T13:57:53.474Z,12.47
2023-03-26T14:00:26.275Z,8.20
2023-03-26T14:02:58.152Z,12.70
2023-03-26T14:05:29.099Z,17.57
2023-03-26T14:08:01.716Z,18.03
2023-03-26T14:10:34.090Z,16.47
2023-03-26T14:13:04.279Z,12.53
2023-03-26T14:15:34.091Z,13.77
2023-03-26T14:18:08.184Z,14.20
2023-03-26T14:20:59.526Z,8.43
2023-03-26T14:23:39.144Z,11.03
2023-03-26T14:26:15.780Z,10.60
2023-03-26T14:29:10.168Z,5.17
2023-03-26T14:31:40.206Z,10.30
2023-03-26T14:34:25.798Z,8.00
2023-03-26T14:37:10.679Z,13.53
2023-03-26T14:40:14.621Z,13.70
2023-03-26T14:42:44.124Z,18.83
2023-03-26T14:45:36.435Z,8.40
2023-03-26T14:48:39.005Z,12.07
2023-03-26T14:51:16.537Z,12.93
2023-03-26T14:53:45.893Z,14.07
2023-03-26T14:56:38.509Z,10.03
2023-03-26T14:59:41.721Z,11.67
2023-03-26T15:02:51.573Z,10.47
2023-03-26T15:05:41.905Z,16.13
2023-03-26T15:08:36.091Z,8.23
2023-03-26T15:11:18.527Z,14.03
2023-03-26T15:13:55.173Z,14.23
2023-03-26T15:16:42.860Z,13.20
2023-03-26T15:19:44.052Z,13.00
2023-03-26T15:22:32.166Z,14.33
2023-03-26T15:25:34.160Z,18.70
2023-03-26T15:28:39.791Z,5.20
2023-03-26T15:31:18.612Z,21.90
2023-03-26T15:34:01.780Z,12.80
2023-03-26T15:37:05.196Z,16.70
2023-03-26T15:39:58.582Z,10.97
2023-03-26T15:42:32.658Z,13.60
2023-03-26T15:45:16.685Z,17.10
2023-03-26T15:47:52.383Z,11.43
2023-03-26T15:50:30.711Z,13.03
2023-03-26T15:53:07.662Z,11.67
2023-03-26T15:55:42.129Z,10.53
2023-03-26T15:58:16.986Z,6.47
2023-03-26T16:00:56.234Z,14.70
2023-03-26T16:03:31.895Z,16.40
2023-03-26T16:06:21.870Z,7.03
2023-03-26T16:08:54.943Z,16.10
2023-03-26T16:11:44.283Z,10.70
2023-03-26T16:14:20.091Z,18.27
2023-03-26T16:16:57.572Z,26.83
2023-03-26T16:19:41.143Z,11.20
2023-03-26T16:22:14.611Z,12.23
2023-03-26T16:24:46.526Z,10.37
2023-03-26T16:27:33.540Z,10.90
2023-03-26T16:30:19.485Z,9.63
2023-03-26T16:32:49.327Z,6.50
2023-03-26T16:35:58.684Z,14.60
2023-03-26T16:38:27.342Z,14.33
2023-03-26T16:41:00.554Z,20.00
2023-03-26T16:43:57.096Z,13.50
2023-03-26T16:46:35.612Z,17.53
2023-03-26T16:49:11.558Z,10.43
2023-03-26T16:51:54.581Z,12.33
2023-03-26T16:54:26.981Z,10.70
2023-03-26T16:57:01.797Z,12.33
2023-03-26T17:00:06.334Z,10.87
2023-03-26T17:02:47.989Z,3.43
2023-03-26T17:05:21.096Z,15.20
2023-03-26T17:07:53.973Z,3.07
2023-03-26T17:10:30.853Z,11.63
2023-03-26T17:13:04.611Z,14.03
2023-03-26T17:15:37.536Z,7.20
2023-03-26T17:18:26.348Z,21.60
2023-03-26T17:21:01.096Z,12.70
2023-03-26T17:23:39.057Z,14.80
2023-03-26T17:26:12.534Z,16.77
2023-03-26T17:28:55.280Z,11.17
2023-03-26T17:31:28.441Z,6.70
2023-03-26T17:34:33.418Z,13.53
2023-03-26T17:37:02.059Z,5.17
2023-03-26T17:40:12.435Z,7.37
2023-03-26T17:42:40.385Z,12.67
2023-03-26T17:45:09.809Z,13.80
2023-03-26T17:47:39.863Z,11.03
2023-03-26T17:50:16.198Z,11.97
2023-03-26T17:52:56.756Z,9.80
2023-03-26T17:55:31.510Z,5.83
2023-03-26T17:58:00.835Z,11.60
2023-03-26T18:00:31.227Z,13.73
2023-03-26T18:03:02.283Z,13.57
2023-03-26T18:05:32.217Z,12.80
2023-03-26T18:08:16.086Z,16.43
2023-03-26T18:11:08.949Z,9.53
2023-03-26T18:13:47.978Z,21.30
2023-03-26T18:16:16.798Z,23.67
2023-03-26T18:18:50.134Z,16.27
2023-03-26T18:21:24.065Z,12.83
2023-03-26T18:23:52.424Z,8.77
2023-03-26T18:26:23.133Z,15.93
2023-03-26T18:28:52.895Z,16.60
2023-03-26T18:31:24.109Z,15.40
2023-03-26T18:33:55.660Z,18.30
2023-03-26T18:36:25.908Z,17.27
2023-03-26T18:38:57.684Z,16.23
2023-03-26T18:41:28.543Z,16.50
2023-03-26T18:43:57.475Z,12.23
2023-03-26T18:46:25.784Z,11.00
2023-03-26T18:48:55.625Z,10.53
2023-03-26T18:51:27.502Z,15.20
2023-03-26T18:53:57.211Z,15.63
2023-03-26T18:56:33.657Z,19.13
2023-03-26T18:59:03.144Z,23.30
2023-03-26T19:01:32.128Z,16.30
2023-03-26T19:04:02.226Z,20.07
2023-03-26T19:06:35.703Z,7.67
2023-03-26T19:09:13.495Z,7.63
2023-03-26T19:11:50.059Z,19.10
2023-03-26T19:14:20.150Z,10.30
2023-03-26T19:16:50.726Z,13.13
2023-03-26T19:19:23.026Z,13.43
2023-03-26T19:21:52.439Z,10.10
2023-03-26T19:24:21.105Z,16.37
2023-03-26T19:26:49.455Z,12.33
2023-03-26T19:29:20.274Z,6.93
2023-03-26T19:31:52.073Z,13.20
2023-03-26T19:34:26.238Z,12.60
2023-03-26T19:36:59.444Z,14.40
2023-03-26T19:42:27.591Z,15.73
2023-03-26T19:45:16.348Z,13.43
2023-03-26T19:47:52.176Z,8.20
2023-03-26T19:50:25.573Z,17.33
2023-03-26T19:51:18.069Z,14.97
2023-03-26T19:53:16.884Z,12.77
2023-03-26T19:55:54.286Z,10.83
2023-03-26T19:58:22.098Z,13.73
2023-03-26T20:00:49.952Z,16.73
2023-03-26T20:03:20.088Z,13.70
2023-03-26T20:05:47.906Z,10.93
2023-03-26T20:08:17.354Z,14.20
2023-03-26T20:10:45.012Z,15.97
2023-03-26T20:13:17.282Z,19.57
2023-03-26T20:15:49.164Z,13.03
2023-03-26T20:18:33.966Z,16.07
2023-03-26T20:21:01.710Z,11.87
2023-03-26T20:23:30.734Z,11.93
2023-03-26T20:25:58.682Z,13.83
2023-03-26T20:28:26.363Z,12.63
2023-03-26T20:30:54.671Z,12.20
2023-03-26T20:33:26.664Z,10.67
2023-03-26T20:35:55.332Z,10.53
2023-03-26T20:38:36.623Z,13.93
2023-03-26T20:41:11.200Z,12.97
2023-03-26T20:43:38.922Z,20.07
2023-03-26T20:46:07.273Z,13.70
2023-03-26T20:48:35.441Z,15.43
2023-03-26T20:51:03.450Z,11.17
2023-03-26T20:53:31.502Z,9.67
2023-03-26T20:55:59.989Z,15.20
2023-03-26T20:58:30.714Z,17.43
2023-03-26T21:01:01.359Z,11.53
2023-03-26T21:03:29.278Z,14.23
2023-03-26T21:06:00.865Z,14.53
2023-03-26T21:08:35.070Z,16.20
2023-03-26T21:11:03.817Z,15.87
2023-03-26T21:13:38.339Z,12.37
2023-03-26T21:16:08.190Z,14.57
2023-03-26T21:18:36.835Z,12.67
2023-03-26T21:21:21.138Z,11.63
2023-03-26T21:23:57.831Z,14.90
2023-03-26T21:26:29.880Z,17.67
2023-03-26T21:28:59.612Z,9.40
2023-03-26T21:31:30.831Z,12.50
2023-03-26T21:33:59.082Z,7.93
2023-03-26T21:36:28.095Z,18.30
2023-03-26T21:38:56.441Z,14.57
2023-03-26T21:41:35.797Z,12.67
2023-03-26T21:44:05.323Z,13.50
2023-03-26T21:46:33.772Z,22.10
2023-03-26T21:49:02.064Z,12.40
2023-03-26T21:51:30.304Z,13.60
2023-03-26T21:53:58.481Z,8.97
2023-03-26T21:56:38.511Z,9.77
2023-03-26T21:59:11.824Z,8.77
2023-03-26T22:01:44.787Z,13.83
2023-03-26T22:04:15.376Z,19.73
2023-03-26T22:06:46.734Z,8.17
2023-03-26T22:09:18.432Z,8.43
2023-03-26T22:11:48.259Z,8.47
2023-03-26T22:14:17.636Z,17.77
2023-03-26T22:16:45.340Z,8.03
2023-03-26T22:19:13.758Z,8.37
2023-03-26T22:21:41.456Z,16.57
2023-03-26T22:24:09.306Z,11.57
2023-03-26T22:26:37.579Z,9.23
2023-03-26T22:29:05.983Z,16.33
2023-03-26T22:31:36.109Z,11.50
2023-03-26T22:34:03.921Z,10.37
2023-03-26T22:36:32.127Z,15.17
2023-03-26T22:38:59.880Z,13.00
2023-03-26T22:41:29.556Z,18.00
2023-03-26T22:43:59.628Z,9.20
2023-03-26T22:46:31.087Z,11.97
2023-03-26T22:49:00.495Z,16.63
2023-03-26T22:51:29.496Z,12.63
2023-03-26T22:53:57.417Z,15.43
2023-03-26T22:56:25.111Z,10.53
2023-03-26T22:58:52.852Z,8.63
2023-03-26T23:01:22.821Z,19.63
2023-03-26T23:03:51.016Z,11.00
2023-03-26T23:06:21.144Z,13.70
2023-03-26T23:08:48.831Z,13.97
2023-03-26T23:11:18.201Z,9.57
2023-03-26T23:13:47.455Z,7.63
2023-03-26T23:16:16.930Z,15.57
2023-03-26T23:18:44.982Z,15.03
2023-03-26T23:21:15.045Z,10.73
2023-03-26T23:23:44.480Z,12.07
2023-03-26T23:26:13.551Z,16.70
2023-03-26T23:28:41.626Z,9.03
2023-03-26T23:31:12.239Z,18.27
2023-03-26T23:33:45.570Z,11.80
2023-03-26T23:36:17.522Z,18.43
2023-03-26T23:38:47.872Z,11.70
2023-03-26T23:41:17.237Z,14.07
2023-03-26T23:43:53.424Z,10.37
2023-03-26T23:46:23.634Z,13.67
2023-03-26T23:48:52.062Z,13.70
2023-03-26T23:51:20.509Z,6.00
2023-03-26T23:53:50.116Z,14.23
2023-03-26T23:56:17.971Z,8.90
2023-03-26T23:58:45.687Z,16.57
